Accueil
METAR-TAF:

METAR-TAF

Aéroports :

Aéroport de Vienne-Schwechat

Vienne, Autriche

latitude: 48-07N, longitude: 016-34E, altitude: 183 m

Observation

Le bulletin a été fait il y a 33 minutes, à 21:50 UTC
Vent 6 kt de nord
Température 10°C
Humidité 53%
Pression 1029 hPa
Visibilité 10 km ou plus
pas de nuages en-dessous de 1500 mètres et pas de cumulonimbus.

METAR: LOWW 192150Z 35006KT CAVOK 10/01 Q1029 NOSIG

Heure: 00:23 (22:23 UTC)

Prévision

Le bulletin a été fait il y a 2 heures et 8 minutes, à 20:15 UTC
Prévision valable du 19 à 21 UTC au 21 à 03 UTC
Vent 5 kt de nord
Visibilité 10 km ou plus
pas de nuages en-dessous de 1500 mètres et pas de cumulonimbus.
Evoluant progressivement
du 19 à 23 UTC au 20 à 02 UTC
Vent 2 kt de direction variable

TAF: LOWW 192015Z 1921/2103 36005KT CAVOK TX22/2015Z TN06/2004Z BECMG 1923/2002 VRB02KT

Observations et prévisions météorologiques de plus de 4000 aéroports (messages METAR et TAF).

Les stations disponibles sont représentées par des disques jaunes et rouges sur la carte.

Passer la souris dessus pour voir le nom de la station.

Cliquer dessus pour voir les observations et prévisions météorologiques.

Pour changer de carte: cliquez sur les boutons verts avec une croix noire pour zoomer, sur le bouton vert avec un tiret pour effectuer un zoom arrière, ou sur les flèches vertes pour les cartes adjacentes.


METAR-TAF: